Chronik & Geschichte

Boeing Stearman am Flugplatz Konstanz

Mit seiner 107-jährigen Geschichte ist Konstanz der älteste Verkehrslandeplatz Deutschlands. Lesen Sie unsere Festschrift zum 100-jährigen Platzjubiläum oder entdecken Sie die ausführliche Flugplatzchronik auf der Website der Initiative PRO Flugplatz Konstanz.

Live am Platz

Die Bilder unserer Webcams werden alle 5 Minuten aktualisiert.

Sonnenaufgang:

04:22 UTC / 06:22 Lokal

Sonnenuntergang:

18:21 UTC / 20:21 Lokal

METAR (20.04.2021 10:20 UTC):

EDNY 201020Z 25007KT 9999 FEW028 12/05 Q1017
VFR

TAF (20.04.2021 05:41 UTC):

TAF COR EDNY 200541Z 2006/2106 VRB03KT CAVOK BECMG 2010/2012 24005KT BECMG 2014/2016 02004KT PROB40 TEMPO 2102/2106 4000 BR

Alle Angaben unverbindlich und ohne Gewähr. Zeiten genähert.

Für den Verkehrslandeplatz Konstanz werden keine offiziellen Wetterinformationen ausgegeben. Daher werden zur Orientierung Daten des nahegelegenen Flughafens Friedrichshafen dargestellt.

Das Landeentgelt kann bei uns auch mit aerops bezahlt werden. Die App für's Handy ist kostenfrei erhältlich.